createdAt,value
2023-01-05T00:02:07.839Z,10.42
2023-01-05T00:04:38.515Z,10.39
2023-01-05T00:07:09.336Z,10.41
2023-01-05T00:09:41.941Z,10.49
2023-01-05T00:12:25.561Z,10.54
2023-01-05T00:15:11.163Z,10.57
2023-01-05T00:17:54.127Z,10.56
2023-01-05T00:20:43.923Z,10.59
2023-01-05T00:23:14.667Z,10.57
2023-01-05T00:25:45.560Z,10.57
2023-01-05T00:28:16.203Z,10.44
2023-01-05T00:30:50.306Z,10.62
2023-01-05T00:33:20.804Z,10.62
2023-01-05T00:35:51.403Z,10.57
2023-01-05T00:38:22.097Z,10.54
2023-01-05T00:40:55.805Z,10.48
2023-01-05T00:43:29.251Z,10.45
2023-01-05T00:46:02.498Z,10.43
2023-01-05T00:48:33.268Z,10.46
2023-01-05T00:51:03.996Z,10.43
2023-01-05T00:53:35.221Z,10.41
2023-01-05T00:56:06.318Z,10.46
2023-01-05T00:58:37.068Z,10.52
2023-01-05T01:01:15.274Z,10.57
2023-01-05T01:03:46.850Z,10.60
2023-01-05T01:06:17.957Z,10.61
2023-01-05T01:08:48.682Z,10.64
2023-01-05T01:11:19.396Z,10.65
2023-01-05T01:13:50.208Z,10.57
2023-01-05T01:16:24.131Z,10.64
2023-01-05T01:18:54.740Z,10.66
2023-01-05T01:21:25.473Z,10.67
2023-01-05T01:23:56.539Z,10.62
2023-01-05T01:26:27.169Z,10.67
2023-01-05T01:28:58.103Z,10.68
2023-01-05T01:31:31.454Z,10.68
2023-01-05T01:34:02.142Z,10.64
2023-01-05T01:36:32.847Z,10.65
2023-01-05T01:39:04.322Z,10.64
2023-01-05T01:41:38.197Z,10.64
2023-01-05T01:44:38.945Z,10.66
2023-01-05T01:47:16.944Z,10.66
2023-01-05T01:49:48.271Z,10.66
2023-01-05T01:52:19.567Z,10.66
2023-01-05T01:54:50.690Z,10.68
2023-01-05T01:57:22.340Z,10.69
2023-01-05T01:59:53.265Z,10.62
2023-01-05T02:02:26.536Z,10.59
2023-01-05T02:04:59.765Z,10.56
2023-01-05T02:07:35.267Z,10.50
2023-01-05T02:10:07.335Z,10.38
2023-01-05T02:12:46.621Z,10.22
2023-01-05T02:15:29.161Z,10.19
2023-01-05T02:18:17.693Z,10.12
2023-01-05T02:21:16.771Z,10.07
2023-01-05T02:24:24.154Z,10.04
2023-01-05T02:27:23.751Z,9.97
2023-01-05T02:30:26.772Z,9.90
2023-01-05T02:33:10.967Z,9.85
2023-01-05T02:35:53.040Z,9.83
2023-01-05T02:38:30.523Z,9.72
2023-01-05T02:41:06.900Z,9.71
2023-01-05T02:43:37.816Z,9.73
2023-01-05T02:46:08.791Z,9.70
2023-01-05T02:48:50.435Z,9.66
2023-01-05T02:51:26.403Z,9.63
2023-01-05T02:54:03.778Z,9.62
2023-01-05T02:56:40.908Z,9.61
2023-01-05T02:59:18.429Z,9.43
2023-01-05T03:01:52.954Z,9.62
2023-01-05T03:04:32.546Z,9.63
2023-01-05T03:07:09.453Z,9.61
2023-01-05T03:09:42.669Z,9.64
2023-01-05T03:12:37.510Z,9.65
2023-01-05T03:15:18.663Z,9.54
2023-01-05T03:17:52.735Z,9.71
2023-01-05T03:20:28.720Z,9.72
2023-01-05T03:23:14.588Z,9.74
2023-01-05T03:25:58.313Z,9.76
2023-01-05T03:28:45.584Z,9.74
2023-01-05T03:31:37.020Z,9.75
2023-01-05T03:34:25.240Z,9.77
2023-01-05T03:37:03.992Z,9.77
2023-01-05T03:39:36.951Z,9.82
2023-01-05T03:42:11.122Z,9.85
2023-01-05T03:44:43.120Z,9.74
2023-01-05T03:47:17.870Z,9.83
2023-01-05T03:49:49.157Z,9.83
2023-01-05T03:52:22.393Z,9.64
2023-01-05T03:54:53.437Z,9.69
2023-01-05T03:57:24.644Z,9.66
2023-01-05T03:59:56.954Z,9.64
2023-01-05T04:02:29.259Z,9.66
2023-01-05T04:05:00.331Z,9.67
2023-01-05T04:07:34.119Z,9.68
2023-01-05T04:10:04.648Z,9.70
2023-01-05T04:12:36.679Z,9.65
2023-01-05T04:15:08.770Z,9.73
2023-01-05T04:17:39.736Z,9.75
2023-01-05T04:20:14.667Z,9.74
2023-01-05T04:22:49.210Z,9.75
2023-01-05T04:25:22.460Z,9.76
2023-01-05T04:27:53.179Z,9.75
2023-01-05T04:30:25.382Z,9.64
2023-01-05T04:32:56.946Z,9.59
2023-01-05T04:35:28.801Z,9.55
2023-01-05T04:38:01.984Z,9.55
2023-01-05T04:40:33.034Z,9.50
2023-01-05T04:43:04.961Z,9.56
2023-01-05T04:45:37.126Z,9.56
2023-01-05T04:48:10.591Z,9.53
2023-01-05T04:50:43.094Z,9.37
2023-01-05T04:53:16.289Z,9.55
2023-01-05T04:55:47.931Z,9.52
2023-01-05T04:58:18.660Z,9.55
2023-01-05T05:00:49.086Z,9.49
2023-01-05T05:03:19.938Z,9.29
2023-01-05T05:05:51.721Z,9.39
2023-01-05T05:08:25.987Z,9.41
2023-01-05T05:10:56.928Z,9.42
2023-01-05T05:13:27.507Z,9.50
2023-01-05T05:15:58.319Z,9.52
2023-01-05T05:18:28.821Z,9.55
2023-01-05T05:20:59.612Z,9.55
2023-01-05T05:23:37.273Z,9.58
2023-01-05T05:26:08.653Z,9.61
2023-01-05T05:28:39.949Z,9.62
2023-01-05T05:31:10.610Z,9.60
2023-01-05T05:33:41.500Z,9.61
2023-01-05T05:36:12.600Z,9.58
2023-01-05T05:38:45.572Z,9.67
2023-01-05T05:41:17.123Z,9.69
2023-01-05T05:43:47.517Z,9.71
2023-01-05T05:46:18.030Z,9.71
2023-01-05T05:48:48.524Z,9.75
2023-01-05T05:51:19.015Z,9.77
2023-01-05T05:53:52.051Z,9.79
2023-01-05T05:56:22.765Z,9.78
2023-01-05T05:58:59.053Z,9.79
2023-01-05T06:01:32.059Z,9.70
2023-01-05T06:04:02.606Z,9.74
2023-01-05T06:06:33.107Z,9.65
2023-01-05T06:09:06.061Z,9.65
2023-01-05T06:11:36.695Z,9.61
2023-01-05T06:14:07.820Z,9.57
2023-01-05T06:16:38.322Z,9.52
2023-01-05T06:19:09.083Z,9.47
2023-01-05T06:21:39.586Z,9.40
2023-01-05T06:24:12.794Z,9.35
2023-01-05T06:26:43.237Z,9.33
2023-01-05T06:29:14.159Z,9.33
2023-01-05T06:31:44.639Z,9.30
2023-01-05T06:34:15.209Z,9.31
2023-01-05T06:36:45.769Z,9.30
2023-01-05T06:39:18.914Z,9.32
2023-01-05T06:41:49.484Z,9.34
2023-01-05T06:44:19.894Z,9.33
2023-01-05T06:46:50.274Z,9.26
2023-01-05T06:49:20.935Z,9.23
2023-01-05T06:51:51.437Z,9.25
2023-01-05T06:54:24.421Z,9.21
2023-01-05T06:56:54.902Z,9.22
2023-01-05T06:59:25.344Z,9.24
2023-01-05T07:01:56.309Z,9.25
2023-01-05T07:04:26.846Z,9.30
2023-01-05T07:06:57.418Z,9.32
2023-01-05T07:09:30.546Z,9.31
2023-01-05T07:12:01.168Z,9.37
2023-01-05T07:14:31.632Z,9.38
2023-01-05T07:17:02.500Z,9.37
2023-01-05T07:19:33.009Z,9.39
2023-01-05T07:22:03.524Z,9.41
2023-01-05T07:24:36.673Z,9.43
2023-01-05T07:27:10.008Z,9.42
2023-01-05T07:29:40.662Z,9.47
2023-01-05T07:32:11.127Z,9.52
2023-01-05T07:34:41.599Z,9.55
2023-01-05T07:37:12.574Z,9.55
2023-01-05T07:39:45.590Z,9.55
2023-01-05T07:42:16.195Z,9.51
2023-01-05T07:44:46.820Z,9.44
2023-01-05T07:47:17.266Z,9.41
2023-01-05T07:49:47.704Z,9.39
2023-01-05T07:52:18.140Z,9.29
2023-01-05T07:54:51.179Z,9.32
2023-01-05T07:57:21.713Z,9.33
2023-01-05T07:59:52.404Z,9.35
2023-01-05T08:02:23.426Z,9.38
2023-01-05T08:04:53.830Z,9.44
2023-01-05T08:07:24.334Z,9.47
2023-01-05T08:10:09.826Z,9.50
2023-01-05T08:13:00.657Z,9.49
2023-01-05T08:15:31.007Z,9.48
2023-01-05T08:18:01.605Z,9.50
2023-01-05T08:20:32.264Z,9.55
2023-01-05T08:23:02.947Z,9.57
2023-01-05T08:25:35.992Z,9.60
2023-01-05T08:28:06.756Z,9.57
2023-01-05T08:30:37.284Z,9.59
2023-01-05T08:33:08.011Z,9.60
2023-01-05T08:35:42.047Z,9.61
2023-01-05T08:38:13.109Z,9.64
2023-01-05T08:40:46.356Z,9.69
2023-01-05T08:43:17.098Z,9.71
2023-01-05T08:45:51.734Z,9.68
2023-01-05T08:48:22.433Z,9.62
2023-01-05T08:50:52.959Z,9.61
2023-01-05T08:53:23.346Z,9.63
2023-01-05T08:55:56.499Z,9.63
2023-01-05T08:58:26.948Z,9.60
2023-01-05T09:00:57.411Z,9.64
2023-01-05T09:03:28.253Z,9.69
2023-01-05T09:06:02.586Z,9.73
2023-01-05T09:08:32.940Z,9.80
2023-01-05T09:11:12.799Z,9.79
2023-01-05T09:13:44.964Z,9.75
2023-01-05T09:16:35.051Z,9.74
2023-01-05T09:19:09.348Z,9.66
2023-01-05T09:21:40.160Z,9.66
2023-01-05T09:24:12.296Z,9.70
2023-01-05T09:26:45.737Z,9.84
2023-01-05T09:29:16.724Z,9.90
2023-01-05T09:31:47.319Z,9.93
2023-01-05T09:34:19.423Z,10.01
2023-01-05T09:36:49.961Z,10.09
2023-01-05T09:39:20.456Z,10.15
2023-01-05T09:41:59.014Z,10.12
2023-01-05T09:44:33.256Z,10.14
2023-01-05T09:47:07.708Z,10.15
2023-01-05T09:49:38.401Z,10.21
2023-01-05T09:52:12.458Z,10.12
2023-01-05T09:54:43.703Z,10.19
2023-01-05T09:57:21.347Z,10.17
2023-01-05T09:59:54.271Z,10.19
2023-01-05T10:02:32.543Z,10.22
2023-01-05T10:05:06.115Z,10.25
2023-01-05T10:07:45.337Z,10.29
2023-01-05T10:10:30.736Z,10.36
2023-01-05T10:13:04.063Z,10.37
2023-01-05T10:15:41.565Z,10.22
2023-01-05T10:18:15.069Z,10.20
2023-01-05T10:20:55.653Z,10.31
2023-01-05T10:23:52.615Z,10.26
2023-01-05T10:26:35.603Z,10.22
2023-01-05T10:29:28.227Z,10.20
2023-01-05T10:32:06.848Z,10.18
2023-01-05T10:34:54.542Z,10.18
2023-01-05T10:37:54.321Z,10.17
2023-01-05T10:40:36.965Z,10.18
2023-01-05T10:43:22.480Z,10.05
2023-01-05T10:46:28.556Z,10.17
2023-01-05T10:48:46.113Z,10.16
2023-01-05T10:51:16.559Z,10.16
2023-01-05T10:53:48.026Z,10.13
2023-01-05T10:56:25.743Z,10.09
2023-01-05T10:59:10.724Z,10.06
2023-01-05T11:01:46.569Z,10.03
2023-01-05T11:04:34.557Z,10.05
2023-01-05T11:07:07.422Z,10.06
2023-01-05T11:09:43.369Z,10.17
2023-01-05T11:12:21.271Z,10.17
2023-01-05T11:14:58.387Z,10.04
2023-01-05T11:17:41.539Z,9.84
2023-01-05T11:20:20.151Z,9.60
2023-01-05T11:22:51.336Z,9.33
2023-01-05T11:25:30.509Z,9.17
2023-01-05T11:28:14.918Z,9.00
2023-01-05T11:31:00.444Z,8.90
2023-01-05T11:33:36.619Z,8.85
2023-01-05T11:36:09.085Z,8.80
2023-01-05T11:38:39.902Z,8.77
2023-01-05T11:41:14.361Z,8.73
2023-01-05T11:43:49.566Z,8.67
2023-01-05T11:46:20.411Z,8.66
2023-01-05T11:48:56.961Z,8.68
2023-01-05T11:51:37.503Z,8.70
2023-01-05T11:54:08.673Z,8.61
2023-01-05T11:56:39.099Z,8.63
2023-01-05T11:59:31.360Z,8.62
2023-01-05T12:02:17.269Z,8.61
2023-01-05T12:05:14.831Z,8.60
2023-01-05T12:07:51.239Z,8.61
2023-01-05T12:10:49.248Z,8.63
2023-01-05T12:13:38.510Z,8.66
2023-01-05T12:16:22.924Z,8.67
2023-01-05T12:19:15.886Z,8.70
2023-01-05T12:22:02.709Z,8.69
2023-01-05T12:24:54.693Z,8.70
2023-01-05T12:27:40.745Z,8.78
2023-01-05T12:32:34.259Z,8.88
2023-01-05T12:34:01.815Z,8.99
2023-01-05T12:36:41.819Z,9.09
2023-01-05T12:39:53.300Z,9.14
2023-01-05T12:42:45.328Z,9.18
2023-01-05T12:45:37.501Z,9.18
2023-01-05T12:48:11.684Z,9.18
2023-01-05T12:50:47.901Z,9.25
2023-01-05T12:53:30.090Z,9.26
2023-01-05T12:56:12.143Z,9.27
2023-01-05T12:58:53.702Z,9.21
2023-01-05T13:01:30.510Z,9.17
2023-01-05T13:04:06.722Z,9.27
2023-01-05T13:06:42.418Z,9.25
2023-01-05T13:09:20.184Z,9.16
2023-01-05T13:12:00.898Z,9.18
2023-01-05T13:14:35.309Z,9.17
2023-01-05T13:17:10.196Z,9.25
2023-01-05T13:19:47.652Z,9.25
2023-01-05T13:22:28.194Z,9.28
2023-01-05T13:25:06.060Z,9.21
2023-01-05T13:27:39.364Z,9.29
2023-01-05T13:30:18.738Z,9.26
2023-01-05T13:33:03.607Z,9.32
2023-01-05T13:35:51.078Z,9.29
2023-01-05T13:38:56.986Z,9.27
2023-01-05T13:41:56.060Z,9.22
2023-01-05T13:44:56.483Z,9.23
2023-01-05T13:47:46.022Z,9.19
2023-01-05T13:50:50.451Z,9.19
2023-01-05T13:53:24.486Z,9.12
2023-01-05T13:55:59.920Z,9.08
2023-01-05T13:58:42.100Z,9.03
2023-01-05T14:01:18.136Z,8.97
2023-01-05T14:03:57.429Z,8.94
2023-01-05T14:06:31.059Z,8.93
2023-01-05T14:11:36.367Z,8.88
2023-01-05T14:14:09.512Z,8.90
2023-01-05T14:16:57.451Z,8.91
2023-01-05T14:19:54.605Z,8.94
2023-01-05T14:22:40.507Z,8.94
2023-01-05T14:25:40.868Z,8.93
2023-01-05T14:28:40.917Z,8.91
2023-01-05T14:31:39.955Z,8.88
2023-01-05T14:34:17.669Z,8.88
2023-01-05T14:37:02.091Z,8.91
2023-01-05T14:39:39.122Z,8.90
2023-01-05T14:42:19.245Z,8.87
2023-01-05T14:44:54.437Z,8.79
2023-01-05T14:47:39.220Z,8.72
2023-01-05T14:50:27.302Z,8.71
2023-01-05T14:53:03.173Z,8.63
2023-01-05T14:55:39.919Z,8.65
2023-01-05T14:58:16.499Z,8.63
2023-01-05T15:00:55.637Z,8.63
2023-01-05T15:03:39.522Z,8.63
2023-01-05T15:06:13.155Z,8.60
2023-01-05T15:09:13.443Z,8.61
2023-01-05T15:12:01.752Z,8.49
2023-01-05T15:15:02.213Z,8.56
2023-01-05T15:17:49.275Z,8.57
2023-01-05T15:20:55.950Z,8.57
2023-01-05T15:23:45.803Z,8.58
2023-01-05T15:26:31.118Z,8.63
2023-01-05T15:29:29.241Z,8.68
2023-01-05T15:32:03.666Z,8.69
2023-01-05T15:34:42.040Z,8.66
2023-01-05T15:37:18.227Z,8.71
2023-01-05T15:39:50.253Z,8.73
2023-01-05T15:42:25.299Z,8.74
2023-01-05T15:45:00.103Z,8.77
2023-01-05T15:47:32.161Z,8.76
2023-01-05T15:50:04.541Z,8.78
2023-01-05T15:52:39.112Z,8.86
2023-01-05T15:55:19.879Z,8.86
2023-01-05T15:57:56.137Z,8.76
2023-01-05T16:00:32.805Z,8.89
2023-01-05T16:03:03.407Z,8.86
2023-01-05T16:05:37.023Z,8.88
2023-01-05T16:08:14.408Z,8.88
2023-01-05T16:10:50.169Z,8.87
2023-01-05T16:13:26.177Z,8.92
2023-01-05T16:16:01.876Z,8.91
2023-01-05T16:18:37.480Z,8.89
2023-01-05T16:21:17.375Z,8.88
2023-01-05T16:23:54.296Z,8.95
2023-01-05T16:26:25.334Z,8.94
2023-01-05T16:28:56.206Z,8.64
2023-01-05T16:31:35.916Z,8.94
2023-01-05T16:34:08.692Z,8.89
2023-01-05T16:36:39.367Z,8.91
2023-01-05T16:39:17.472Z,8.94
2023-01-05T16:42:00.128Z,8.92
2023-01-05T16:44:33.231Z,8.96
2023-01-05T16:47:12.109Z,8.98
2023-01-05T16:49:53.565Z,8.98
2023-01-05T16:52:35.897Z,8.99
2023-01-05T16:55:36.654Z,9.03
2023-01-05T16:58:09.624Z,8.98
2023-01-05T17:00:41.584Z,8.99
2023-01-05T17:03:33.056Z,8.70
2023-01-05T17:06:05.020Z,8.93
2023-01-05T17:08:37.759Z,8.96
2023-01-05T17:11:13.792Z,8.96
2023-01-05T17:13:47.830Z,8.95
2023-01-05T17:16:20.042Z,8.88
2023-01-05T17:18:53.158Z,8.82
2023-01-05T17:21:28.329Z,8.78
2023-01-05T17:24:00.428Z,8.86
2023-01-05T17:26:33.287Z,8.90
2023-01-05T17:29:07.219Z,8.92
2023-01-05T17:31:38.388Z,8.92
2023-01-05T17:34:11.448Z,8.97
2023-01-05T17:36:42.697Z,8.97
2023-01-05T17:39:17.172Z,8.98
2023-01-05T17:41:47.756Z,8.95
2023-01-05T17:44:19.049Z,8.98
2023-01-05T17:46:51.559Z,8.99
2023-01-05T17:49:24.993Z,9.03
2023-01-05T17:51:55.486Z,9.06
2023-01-05T17:54:25.931Z,9.07
2023-01-05T17:56:56.648Z,9.10
2023-01-05T17:59:27.843Z,9.09
2023-01-05T18:01:59.053Z,9.17
2023-01-05T18:04:32.301Z,9.20
2023-01-05T18:07:03.108Z,9.20
2023-01-05T18:09:35.642Z,9.24
2023-01-05T18:12:06.354Z,9.25
2023-01-05T18:17:09.497Z,9.31
2023-01-05T18:22:33.720Z,9.31
2023-01-05T18:27:38.007Z,9.31
2023-01-05T18:30:11.364Z,9.35
2023-01-05T18:32:43.096Z,9.31
2023-01-05T18:35:16.368Z,9.29
2023-01-05T18:37:47.308Z,9.29
2023-01-05T18:40:18.626Z,9.29
2023-01-05T18:42:49.275Z,9.30
2023-01-05T18:45:26.369Z,9.31
2023-01-05T18:48:03.505Z,9.31
2023-01-05T18:50:36.634Z,9.26
2023-01-05T18:53:07.103Z,9.26
2023-01-05T18:55:37.807Z,9.30
2023-01-05T18:58:08.278Z,9.31
2023-01-05T19:00:38.936Z,9.32
2023-01-05T19:03:10.150Z,9.31
2023-01-05T19:05:45.659Z,9.35
2023-01-05T19:08:16.694Z,9.31
2023-01-05T19:10:47.289Z,9.34
2023-01-05T19:13:18.103Z,9.28
2023-01-05T19:15:48.905Z,9.25
2023-01-05T19:18:19.847Z,8.98
2023-01-05T19:21:01.087Z,9.24
2023-01-05T19:23:31.865Z,9.17
2023-01-05T19:26:06.051Z,9.29
2023-01-05T19:28:38.003Z,9.29
2023-01-05T19:31:10.116Z,9.31
2023-01-05T19:33:41.659Z,9.31
2023-01-05T19:36:16.388Z,9.33
2023-01-05T19:38:47.807Z,9.36
2023-01-05T19:41:21.558Z,9.36
2023-01-05T19:43:53.600Z,9.38
2023-01-05T19:46:26.277Z,9.37
2023-01-05T19:48:59.637Z,9.38
2023-01-05T19:51:34.177Z,9.37
2023-01-05T19:54:06.702Z,9.36
2023-01-05T19:56:38.060Z,9.35
2023-01-05T19:59:10.890Z,9.36
2023-01-05T20:01:42.666Z,9.34
2023-01-05T20:04:13.583Z,9.42
2023-01-05T20:06:48.203Z,9.44
2023-01-05T20:09:20.609Z,9.48
2023-01-05T20:11:59.589Z,9.47
2023-01-05T20:14:36.806Z,9.44
2023-01-05T20:17:09.286Z,9.43
2023-01-05T20:19:40.599Z,9.41
2023-01-05T20:22:16.446Z,9.41
2023-01-05T20:24:46.917Z,9.31
2023-01-05T20:27:19.069Z,9.32
2023-01-05T20:29:49.541Z,9.17
2023-01-05T20:32:22.501Z,9.26
2023-01-05T20:34:55.271Z,9.26
2023-01-05T20:37:29.089Z,9.26
2023-01-05T20:40:03.498Z,9.22
2023-01-05T20:42:34.146Z,9.24
2023-01-05T20:45:05.053Z,9.27
2023-01-05T20:47:46.662Z,9.29
2023-01-05T20:50:18.121Z,9.32
2023-01-05T20:52:51.155Z,9.33
2023-01-05T20:55:21.824Z,9.36
2023-01-05T20:57:52.447Z,9.36
2023-01-05T21:00:25.102Z,9.33
2023-01-05T21:02:55.719Z,9.25
2023-01-05T21:05:26.509Z,9.21
2023-01-05T21:07:59.733Z,9.10
2023-01-05T21:10:30.685Z,9.05
2023-01-05T21:13:30.455Z,9.01
2023-01-05T21:15:59.364Z,8.96
2023-01-05T21:18:30.613Z,9.03
2023-01-05T21:21:02.105Z,9.05
2023-01-05T21:23:35.196Z,9.06
2023-01-05T21:26:12.891Z,9.00
2023-01-05T21:28:45.165Z,8.87
2023-01-05T21:31:18.833Z,8.99
2023-01-05T21:33:49.907Z,9.01
2023-01-05T21:36:23.287Z,9.09
2023-01-05T21:39:01.602Z,9.16
2023-01-05T21:41:46.481Z,9.19
2023-01-05T21:44:18.326Z,9.19
2023-01-05T21:46:50.143Z,9.23
2023-01-05T21:49:21.871Z,9.23
2023-01-05T21:52:04.901Z,9.24
2023-01-05T21:54:51.462Z,9.29
2023-01-05T21:57:22.068Z,9.30
2023-01-05T21:59:54.260Z,9.34
2023-01-05T22:02:24.879Z,9.35
2023-01-05T22:04:55.408Z,9.36
2023-01-05T22:07:26.417Z,9.35
2023-01-05T22:09:59.610Z,9.38
2023-01-05T22:12:30.372Z,9.38
2023-01-05T22:15:00.991Z,9.41
2023-01-05T22:17:33.315Z,9.35
2023-01-05T22:20:04.169Z,9.32
2023-01-05T22:22:34.758Z,9.31
2023-01-05T22:25:08.801Z,9.33
2023-01-05T22:27:39.117Z,9.34
2023-01-05T22:30:11.264Z,9.30
2023-01-05T22:32:41.852Z,9.39
2023-01-05T22:35:12.388Z,9.44
2023-01-05T22:37:43.167Z,9.42
2023-01-05T22:40:16.780Z,9.36
2023-01-05T22:42:47.433Z,9.40
2023-01-05T22:45:18.577Z,9.41
2023-01-05T22:47:49.064Z,9.49
2023-01-05T22:50:19.877Z,9.56
2023-01-05T22:52:50.492Z,9.57
2023-01-05T22:55:23.544Z,9.60
2023-01-05T22:57:54.047Z,9.52
2023-01-05T23:00:24.893Z,9.49
2023-01-05T23:02:55.751Z,9.52
2023-01-05T23:05:26.238Z,9.56
2023-01-05T23:07:56.621Z,9.50
2023-01-05T23:10:30.955Z,9.55
2023-01-05T23:13:01.166Z,9.49
2023-01-05T23:15:31.549Z,9.47
2023-01-05T23:18:02.825Z,9.47
2023-01-05T23:20:36.859Z,9.44
2023-01-05T23:23:07.360Z,9.50
2023-01-05T23:25:40.662Z,9.42
2023-01-05T23:28:11.133Z,9.48
2023-01-05T23:30:42.439Z,9.44
2023-01-05T23:33:12.985Z,9.43
2023-01-05T23:35:45.047Z,9.39
2023-01-05T23:38:16.292Z,9.41
2023-01-05T23:40:51.377Z,9.40
2023-01-05T23:43:23.989Z,9.36
2023-01-05T23:45:55.749Z,9.40
2023-01-05T23:48:26.554Z,9.27
2023-01-05T23:50:57.900Z,9.30
2023-01-05T23:53:28.856Z,9.32
2023-01-05T23:56:12.138Z,9.39
2023-01-05T23:58:42.720Z,9.39
